createdAt,value
2023-02-05T00:00:02.414Z,0.00
2023-02-05T00:01:02.361Z,0.00
2023-02-05T00:02:02.392Z,0.00
2023-02-05T00:03:02.458Z,0.00
2023-02-05T00:04:02.347Z,0.00
2023-02-05T00:05:02.325Z,0.00
2023-02-05T00:06:02.308Z,0.00
2023-02-05T00:07:02.311Z,0.00
2023-02-05T00:08:02.293Z,0.00
2023-02-05T00:09:02.300Z,0.00
2023-02-05T00:10:02.296Z,0.00
2023-02-05T00:11:02.248Z,0.00
2023-02-05T00:12:02.243Z,0.00
2023-02-05T00:13:02.276Z,0.00
2023-02-05T00:14:02.245Z,0.00
2023-02-05T00:15:02.255Z,0.00
2023-02-05T00:16:02.222Z,0.00
2023-02-05T00:17:02.222Z,0.00
2023-02-05T00:18:02.185Z,0.00
2023-02-05T00:19:02.167Z,0.00
2023-02-05T00:20:02.160Z,0.00
2023-02-05T00:21:02.125Z,0.00
2023-02-05T00:22:02.129Z,0.00
2023-02-05T00:23:02.128Z,0.00
2023-02-05T00:24:02.151Z,0.00
2023-02-05T00:25:02.102Z,0.00
2023-02-05T00:26:02.074Z,0.00
2023-02-05T00:27:02.059Z,0.00
2023-02-05T00:28:02.058Z,0.00
2023-02-05T00:29:02.337Z,0.00
2023-02-05T00:30:02.040Z,0.00
2023-02-05T00:31:02.164Z,0.00
2023-02-05T00:32:02.067Z,0.00
2023-02-05T00:33:01.995Z,0.00
2023-02-05T00:34:02.020Z,0.00
2023-02-05T00:35:02.013Z,0.00
2023-02-05T00:36:01.977Z,0.00
2023-02-05T00:37:01.979Z,0.00
2023-02-05T00:38:01.946Z,0.00
2023-02-05T00:39:01.928Z,0.00
2023-02-05T00:40:01.921Z,0.00
2023-02-05T00:41:01.909Z,0.00
2023-02-05T00:42:01.934Z,0.00
2023-02-05T00:43:01.933Z,0.00
2023-02-05T00:44:01.877Z,0.00
2023-02-05T00:45:01.858Z,0.00
2023-02-05T00:46:01.920Z,0.00
2023-02-05T00:47:01.846Z,0.00
2023-02-05T00:48:01.866Z,0.00
2023-02-05T00:49:01.859Z,0.00
2023-02-05T00:50:01.807Z,0.00
2023-02-05T00:51:01.806Z,0.00
2023-02-05T00:52:01.811Z,0.00
2023-02-05T00:53:01.831Z,0.00
2023-02-05T00:54:01.777Z,0.00
2023-02-05T00:55:01.791Z,0.00
2023-02-05T00:56:01.735Z,0.00
2023-02-05T00:57:01.729Z,0.00
2023-02-05T00:58:01.748Z,0.00
2023-02-05T00:59:01.720Z,0.00
2023-02-05T01:00:01.701Z,0.00
2023-02-05T01:01:01.781Z,0.00
2023-02-05T01:02:01.684Z,0.00
2023-02-05T01:03:01.678Z,0.00
2023-02-05T01:04:01.703Z,0.00
2023-02-05T01:05:01.665Z,0.00
2023-02-05T01:06:01.626Z,0.00
2023-02-05T01:07:01.620Z,0.00
2023-02-05T01:08:01.620Z,0.00
2023-02-05T01:09:01.621Z,0.00
2023-02-05T01:10:01.629Z,0.00
2023-02-05T01:11:01.604Z,0.00
2023-02-05T01:12:01.576Z,0.00
2023-02-05T01:13:01.575Z,0.00
2023-02-05T01:14:01.557Z,0.00
2023-02-05T01:15:01.574Z,0.00
2023-02-05T01:16:01.598Z,0.00
2023-02-05T01:17:01.563Z,0.00
2023-02-05T01:18:01.498Z,0.00
2023-02-05T01:19:01.853Z,0.00
2023-02-05T01:20:01.545Z,0.00
2023-02-05T01:21:01.472Z,0.00
2023-02-05T01:22:01.490Z,0.00
2023-02-05T01:23:01.484Z,0.00
2023-02-05T01:24:01.472Z,0.00
2023-02-05T01:25:01.426Z,0.00
2023-02-05T01:26:01.418Z,0.00
2023-02-05T01:27:01.451Z,0.00
2023-02-05T01:28:01.462Z,0.00
2023-02-05T01:29:01.419Z,0.00
2023-02-05T01:30:01.376Z,0.00
2023-02-05T01:31:01.432Z,0.00
2023-02-05T01:32:01.382Z,0.00
2023-02-05T01:33:01.343Z,0.00
2023-02-05T01:34:01.352Z,0.00
2023-02-05T01:35:01.308Z,0.00
2023-02-05T01:36:01.329Z,0.00
2023-02-05T01:37:01.292Z,0.00
2023-02-05T01:38:01.325Z,0.00
2023-02-05T01:39:01.285Z,0.00
2023-02-05T01:40:01.250Z,0.00
2023-02-05T01:41:01.238Z,0.00
2023-02-05T01:42:01.228Z,0.00
2023-02-05T01:43:01.249Z,0.00
2023-02-05T01:44:01.248Z,0.00
2023-02-05T01:45:01.223Z,0.00
2023-02-05T01:46:01.185Z,0.00
2023-02-05T01:47:01.169Z,0.00
2023-02-05T01:48:01.155Z,0.00
2023-02-05T01:49:01.186Z,0.00
2023-02-05T01:50:01.165Z,0.00
2023-02-05T01:51:01.140Z,0.00
2023-02-05T01:52:01.133Z,0.00
2023-02-05T01:53:01.100Z,0.00
2023-02-05T01:54:01.345Z,0.00
2023-02-05T01:55:01.100Z,0.00
2023-02-05T01:56:01.084Z,0.00
2023-02-05T01:57:01.097Z,0.00
2023-02-05T01:58:01.047Z,0.00
2023-02-05T01:59:01.373Z,0.00
2023-02-05T02:00:01.029Z,0.00
2023-02-05T02:01:01.046Z,0.00
2023-02-05T02:02:01.012Z,0.00
2023-02-05T02:03:00.989Z,0.00
2023-02-05T02:04:00.974Z,0.00
2023-02-05T02:05:01.001Z,0.00
2023-02-05T02:06:00.993Z,0.00
2023-02-05T02:07:00.982Z,0.00
2023-02-05T02:08:00.967Z,0.00
2023-02-05T02:09:00.920Z,0.00
2023-02-05T02:10:00.926Z,0.00
2023-02-05T02:11:00.937Z,0.00
2023-02-05T02:12:00.890Z,0.00
2023-02-05T02:13:00.918Z,0.00
2023-02-05T02:14:00.868Z,0.00
2023-02-05T02:15:00.853Z,0.00
2023-02-05T02:16:00.969Z,0.00
2023-02-05T02:17:00.851Z,0.00
2023-02-05T02:18:00.851Z,0.00
2023-02-05T02:19:00.868Z,0.00
2023-02-05T02:20:00.842Z,0.00
2023-02-05T02:21:00.789Z,0.00
2023-02-05T02:22:00.801Z,0.00
2023-02-05T02:23:00.775Z,0.00
2023-02-05T02:24:00.781Z,0.00
2023-02-05T02:25:00.796Z,0.00
2023-02-05T02:26:00.743Z,0.00
2023-02-05T02:27:00.740Z,0.00
2023-02-05T02:28:00.804Z,0.00
2023-02-05T02:29:00.705Z,0.00
2023-02-05T02:30:00.711Z,0.00
2023-02-05T02:31:00.884Z,0.00
2023-02-05T02:32:00.663Z,0.00
2023-02-05T02:33:00.858Z,0.00
2023-02-05T02:34:00.656Z,0.00
2023-02-05T02:35:00.656Z,0.00
2023-02-05T02:36:00.664Z,0.00
2023-02-05T02:37:00.610Z,0.00
2023-02-05T02:38:00.598Z,0.00
2023-02-05T02:39:00.621Z,0.00
2023-02-05T02:40:00.615Z,0.00
2023-02-05T02:41:00.603Z,0.00
2023-02-05T02:42:00.573Z,0.00
2023-02-05T02:43:00.557Z,0.00
2023-02-05T02:44:00.567Z,0.00
2023-02-05T02:45:00.536Z,0.00
2023-02-05T02:46:00.531Z,0.00
2023-02-05T02:47:00.535Z,0.00
2023-02-05T02:48:00.538Z,0.00
2023-02-05T02:49:00.479Z,0.00
2023-02-05T02:50:00.487Z,0.00
2023-02-05T02:51:00.466Z,0.00
2023-02-05T02:52:00.469Z,0.00
2023-02-05T02:53:00.486Z,0.00
2023-02-05T02:54:00.470Z,0.00
2023-02-05T02:55:00.466Z,0.00
2023-02-05T02:56:00.422Z,0.00
2023-02-05T02:57:00.404Z,0.00
2023-02-05T02:58:00.400Z,0.00
2023-02-05T02:59:00.387Z,0.00
2023-02-05T03:00:00.394Z,0.00
2023-02-05T03:01:00.383Z,0.00
2023-02-05T03:02:00.339Z,0.00
2023-02-05T03:03:00.380Z,0.00
2023-02-05T03:04:00.381Z,0.00
2023-02-05T03:05:00.349Z,0.00
2023-02-05T03:06:00.293Z,0.00
2023-02-05T03:07:00.294Z,0.00
2023-02-05T03:08:00.282Z,0.00
2023-02-05T03:09:00.302Z,0.00
2023-02-05T03:10:00.268Z,0.00
2023-02-05T03:11:00.315Z,0.00
2023-02-05T03:12:00.247Z,0.00
2023-02-05T03:13:00.217Z,0.00
2023-02-05T03:14:00.223Z,0.00
2023-02-05T03:15:00.234Z,0.00
2023-02-05T03:16:00.227Z,0.00
2023-02-05T03:17:00.206Z,0.00
2023-02-05T03:18:00.178Z,0.00
2023-02-05T03:19:00.159Z,0.00
2023-02-05T03:20:00.156Z,0.00
2023-02-05T03:21:00.146Z,0.00
2023-02-05T03:22:00.163Z,0.00
2023-02-05T03:23:00.142Z,0.00
2023-02-05T03:24:00.107Z,0.00
2023-02-05T03:25:00.100Z,0.00
2023-02-05T03:26:00.107Z,0.00
2023-02-05T03:27:00.102Z,0.00
2023-02-05T03:28:00.145Z,0.00
2023-02-05T03:29:00.055Z,0.00
2023-02-05T03:30:00.026Z,0.00
2023-02-05T03:31:00.120Z,0.00
2023-02-05T03:32:00.016Z,0.00
2023-02-05T03:33:00.013Z,0.00
2023-02-05T03:34:00.055Z,0.00
2023-02-05T03:35:00.017Z,0.00
2023-02-05T03:35:59.962Z,0.00
2023-02-05T03:36:59.974Z,0.00
2023-02-05T03:37:59.965Z,0.00
2023-02-05T03:38:59.992Z,0.00
2023-02-05T03:39:59.915Z,0.00
2023-02-05T03:40:59.922Z,0.00
2023-02-05T03:41:59.907Z,0.00
2023-02-05T03:42:59.934Z,0.00
2023-02-05T03:43:59.914Z,0.00
2023-02-05T03:44:59.889Z,0.00
2023-02-05T03:45:59.906Z,0.00
2023-02-05T03:46:59.873Z,0.00
2023-02-05T03:47:59.848Z,0.00
2023-02-05T03:48:59.827Z,0.00
2023-02-05T03:49:59.829Z,0.00
2023-02-05T03:50:59.792Z,0.00
2023-02-05T03:51:59.788Z,0.00
2023-02-05T03:52:59.775Z,0.00
2023-02-05T03:53:59.781Z,0.00
2023-02-05T03:54:59.794Z,0.00
2023-02-05T03:55:59.786Z,0.00
2023-02-05T03:56:59.723Z,0.00
2023-02-05T03:57:59.765Z,0.00
2023-02-05T03:58:59.712Z,0.00
2023-02-05T03:59:59.749Z,0.00
2023-02-05T04:00:59.777Z,0.00
2023-02-05T04:01:59.717Z,0.00
2023-02-05T04:02:59.659Z,0.00
2023-02-05T04:03:59.642Z,0.00
2023-02-05T04:04:59.651Z,0.00
2023-02-05T04:05:59.658Z,0.00
2023-02-05T04:06:59.615Z,0.00
2023-02-05T04:07:59.601Z,0.00
2023-02-05T04:08:59.597Z,0.00
2023-02-05T04:09:59.581Z,0.00
2023-02-05T04:10:59.589Z,0.00
2023-02-05T04:11:59.576Z,0.00
2023-02-05T04:12:59.567Z,0.00
2023-02-05T04:13:59.532Z,0.00
2023-02-05T04:14:59.565Z,0.00
2023-02-05T04:15:59.539Z,0.00
2023-02-05T04:16:59.516Z,0.00
2023-02-05T04:17:59.533Z,0.00
2023-02-05T04:18:59.497Z,0.00
2023-02-05T04:19:59.463Z,0.00
2023-02-05T04:20:59.458Z,0.00
2023-02-05T04:21:59.458Z,0.00
2023-02-05T04:22:59.466Z,0.00
2023-02-05T04:23:59.477Z,0.00
2023-02-05T04:24:59.407Z,0.00
2023-02-05T04:25:59.417Z,0.00
2023-02-05T04:26:59.401Z,0.00
2023-02-05T04:27:59.476Z,0.00
2023-02-05T04:28:59.374Z,0.00
2023-02-05T04:29:59.375Z,0.00
2023-02-05T04:30:59.442Z,0.00
2023-02-05T04:31:59.364Z,0.00
2023-02-05T04:32:59.360Z,0.00
2023-02-05T04:33:59.352Z,0.00
2023-02-05T04:34:59.362Z,0.00
2023-02-05T04:35:59.372Z,0.00
2023-02-05T04:36:59.329Z,0.00
2023-02-05T04:37:59.269Z,0.00
2023-02-05T04:38:59.265Z,0.00
2023-02-05T04:39:59.257Z,0.00
2023-02-05T04:40:59.257Z,0.00
2023-02-05T04:41:59.228Z,0.00
2023-02-05T04:42:59.233Z,0.00
2023-02-05T04:43:59.214Z,0.00
2023-02-05T04:44:59.210Z,0.00
2023-02-05T04:45:59.237Z,0.00
2023-02-05T04:46:59.201Z,0.00
2023-02-05T04:47:59.177Z,0.00
2023-02-05T04:48:59.162Z,0.00
2023-02-05T04:49:59.174Z,0.00
2023-02-05T04:50:59.158Z,0.00
2023-02-05T04:51:59.152Z,0.00
2023-02-05T04:52:59.131Z,0.00
2023-02-05T04:53:59.094Z,0.00
2023-02-05T04:54:59.083Z,0.00
2023-02-05T04:55:59.098Z,0.00
2023-02-05T04:56:59.058Z,0.00
2023-02-05T04:57:59.064Z,0.00
2023-02-05T04:58:59.037Z,0.00
2023-02-05T04:59:59.065Z,0.00
2023-02-05T05:00:59.055Z,0.00
2023-02-05T05:01:59.040Z,0.00
2023-02-05T05:02:59.005Z,0.00
2023-02-05T05:03:59.012Z,0.00
2023-02-05T05:04:58.998Z,0.00
2023-02-05T05:05:58.962Z,0.00
2023-02-05T05:06:58.966Z,0.00
2023-02-05T05:07:58.987Z,0.00
2023-02-05T05:08:58.967Z,0.00
2023-02-05T05:09:58.944Z,0.00
2023-02-05T05:10:58.945Z,0.00
2023-02-05T05:11:58.897Z,0.00
2023-02-05T05:12:58.901Z,0.00
2023-02-05T05:13:58.876Z,0.00
2023-02-05T05:15:07.380Z,0.00
2023-02-05T05:15:58.953Z,0.00
2023-02-05T05:16:58.844Z,0.00
2023-02-05T05:17:58.848Z,0.00
2023-02-05T05:18:58.814Z,0.00
2023-02-05T05:19:58.823Z,0.00
2023-02-05T05:20:58.823Z,0.00
2023-02-05T05:21:58.810Z,0.00
2023-02-05T05:22:58.788Z,0.00
2023-02-05T05:23:58.789Z,0.00
2023-02-05T05:24:58.751Z,0.00
2023-02-05T05:25:58.765Z,0.00
2023-02-05T05:26:58.756Z,0.00
2023-02-05T05:27:58.750Z,0.00
2023-02-05T05:28:58.721Z,0.00
2023-02-05T05:29:58.707Z,0.00
2023-02-05T05:30:58.735Z,0.00
2023-02-05T05:31:58.717Z,0.00
2023-02-05T05:32:58.688Z,0.00
2023-02-05T05:33:58.654Z,0.00
2023-02-05T05:34:58.649Z,0.00
2023-02-05T05:35:58.646Z,0.00
2023-02-05T05:36:58.635Z,0.00
2023-02-05T05:37:58.645Z,0.00
2023-02-05T05:38:58.611Z,0.00
2023-02-05T05:39:58.598Z,0.00
2023-02-05T05:40:58.593Z,0.00
2023-02-05T05:41:58.562Z,0.00
2023-02-05T05:42:58.568Z,0.00
2023-02-05T05:43:58.564Z,0.00
2023-02-05T05:44:58.546Z,0.00
2023-02-05T05:45:58.548Z,0.00
2023-02-05T05:46:58.536Z,0.00
2023-02-05T05:47:58.495Z,0.00
2023-02-05T05:48:58.504Z,0.00
2023-02-05T05:49:58.482Z,0.00
2023-02-05T05:50:58.478Z,0.00
2023-02-05T05:51:58.506Z,0.00
2023-02-05T05:52:58.442Z,0.00
2023-02-05T05:53:58.432Z,0.00
2023-02-05T05:54:58.414Z,0.00
2023-02-05T05:55:58.428Z,0.00
2023-02-05T05:56:58.421Z,0.00
2023-02-05T05:57:58.404Z,0.00
2023-02-05T05:58:58.405Z,0.00
2023-02-05T05:59:58.373Z,0.00
2023-02-05T06:00:58.349Z,0.00
2023-02-05T06:01:58.423Z,0.00
2023-02-05T06:02:58.334Z,0.00
2023-02-05T06:03:58.339Z,0.00
2023-02-05T06:04:58.299Z,0.00
2023-02-05T06:05:58.290Z,0.00
2023-02-05T06:06:58.286Z,0.00
2023-02-05T06:07:58.298Z,0.00
2023-02-05T06:08:58.271Z,0.00
2023-02-05T06:09:58.275Z,0.00
2023-02-05T06:10:58.235Z,0.00
2023-02-05T06:11:58.226Z,0.00
2023-02-05T06:12:58.215Z,0.00
2023-02-05T06:13:58.247Z,0.00
2023-02-05T06:14:58.203Z,0.00
2023-02-05T06:15:58.216Z,0.00
2023-02-05T06:16:58.182Z,0.00
2023-02-05T06:17:58.158Z,0.00
2023-02-05T06:18:58.158Z,0.00
2023-02-05T06:19:58.178Z,0.00
2023-02-05T06:20:58.142Z,0.00
2023-02-05T06:21:58.112Z,0.00
2023-02-05T06:22:58.100Z,0.00
2023-02-05T06:23:58.117Z,0.00
2023-02-05T06:24:58.124Z,0.00
2023-02-05T06:25:58.092Z,0.00
2023-02-05T06:26:58.074Z,0.00
2023-02-05T06:27:58.140Z,0.00
2023-02-05T06:28:58.033Z,0.00
2023-02-05T06:29:58.053Z,0.00
2023-02-05T06:30:58.108Z,0.00
2023-02-05T06:31:58.061Z,0.00
2023-02-05T06:32:57.990Z,0.00
2023-02-05T06:33:57.994Z,0.00
2023-02-05T06:34:57.967Z,0.00
2023-02-05T06:35:57.965Z,0.00
2023-02-05T06:36:57.947Z,0.00
2023-02-05T06:37:57.966Z,0.00
2023-02-05T06:38:57.960Z,0.00
2023-02-05T06:39:57.953Z,0.00
2023-02-05T06:40:57.924Z,0.00
2023-02-05T06:41:57.912Z,0.00
2023-02-05T06:42:57.890Z,0.00
2023-02-05T06:43:57.906Z,0.00
2023-02-05T06:44:57.857Z,0.00
2023-02-05T06:45:57.866Z,0.00
2023-02-05T06:46:57.863Z,0.00
2023-02-05T06:47:57.870Z,0.00
2023-02-05T06:48:57.856Z,0.00
2023-02-05T06:49:57.860Z,0.00
2023-02-05T06:50:57.791Z,0.00
2023-02-05T06:51:57.782Z,0.00
2023-02-05T06:52:57.777Z,0.00
2023-02-05T06:53:57.791Z,0.00
2023-02-05T06:54:57.765Z,0.00
2023-02-05T06:55:57.791Z,0.00
2023-02-05T06:56:57.739Z,0.00
2023-02-05T06:57:57.716Z,0.00
2023-02-05T06:58:57.712Z,0.00
2023-02-05T06:59:57.699Z,0.00
2023-02-05T07:00:57.703Z,0.00
2023-02-05T07:01:57.744Z,0.00
2023-02-05T07:02:57.769Z,0.00
2023-02-05T07:03:57.652Z,0.00
2023-02-05T07:04:57.655Z,0.00
2023-02-05T07:05:57.635Z,0.00
2023-02-05T07:06:57.635Z,0.00
2023-02-05T07:07:57.620Z,0.00
2023-02-05T07:08:57.650Z,0.00
2023-02-05T07:09:57.588Z,0.00
2023-02-05T07:10:57.597Z,0.00
2023-02-05T07:11:57.614Z,0.00
2023-02-05T07:12:57.584Z,0.00
2023-02-05T07:13:57.580Z,5.62
2023-02-05T07:14:57.556Z,5.62
2023-02-05T07:15:57.555Z,5.62
2023-02-05T07:16:57.521Z,5.62
2023-02-05T07:17:57.514Z,5.62
2023-02-05T07:18:57.494Z,5.62
2023-02-05T07:19:57.498Z,5.62
2023-02-05T07:20:57.483Z,5.62
2023-02-05T07:21:57.465Z,5.62
2023-02-05T07:22:57.464Z,5.62
2023-02-05T07:23:57.447Z,5.62
2023-02-05T07:24:57.422Z,5.62
2023-02-05T07:25:57.418Z,5.62
2023-02-05T07:26:57.421Z,5.62
2023-02-05T07:27:57.479Z,5.62
2023-02-05T07:28:57.408Z,5.62
2023-02-05T07:29:57.391Z,5.62
2023-02-05T07:30:59.993Z,5.62
2023-02-05T07:31:57.391Z,5.62
2023-02-05T07:32:57.347Z,5.62
2023-02-05T07:33:57.370Z,5.62
2023-02-05T07:34:57.326Z,5.62
2023-02-05T07:35:57.322Z,5.62
2023-02-05T07:36:57.293Z,5.62
2023-02-05T07:37:57.283Z,5.62
2023-02-05T07:38:57.297Z,5.62
2023-02-05T07:39:57.287Z,5.62
2023-02-05T07:40:57.265Z,5.62
2023-02-05T07:41:57.257Z,5.62
2023-02-05T07:42:57.873Z,5.62
2023-02-05T07:43:57.257Z,5.62
2023-02-05T07:44:57.239Z,5.62
2023-02-05T07:45:57.212Z,5.62
2023-02-05T07:46:57.301Z,5.62
2023-02-05T07:47:57.164Z,5.62
2023-02-05T07:48:57.174Z,5.62
2023-02-05T07:49:57.147Z,5.62
2023-02-05T07:50:57.143Z,5.62
2023-02-05T07:51:57.161Z,5.62
2023-02-05T07:52:57.133Z,5.62
2023-02-05T07:53:57.103Z,5.62
2023-02-05T07:54:57.102Z,5.62
2023-02-05T07:55:57.102Z,5.62
2023-02-05T07:56:57.081Z,5.62
2023-02-05T07:57:57.094Z,5.62
2023-02-05T07:58:57.074Z,5.62
2023-02-05T07:59:57.058Z,5.62
2023-02-05T08:00:57.080Z,5.62
2023-02-05T08:01:57.025Z,5.62
2023-02-05T08:02:57.009Z,5.62
2023-02-05T08:03:57.062Z,11.25
2023-02-05T08:04:57.001Z,11.25
2023-02-05T08:05:57.007Z,11.25
2023-02-05T08:06:56.953Z,11.25
2023-02-05T08:07:56.954Z,11.25
2023-02-05T08:08:56.936Z,11.25
2023-02-05T08:09:56.962Z,11.25
2023-02-05T08:10:56.937Z,11.25
2023-02-05T08:11:56.915Z,11.25
2023-02-05T08:12:56.907Z,16.88
2023-02-05T08:13:56.896Z,11.25
2023-02-05T08:14:56.893Z,11.25
2023-02-05T08:15:56.953Z,11.25
2023-02-05T08:16:56.871Z,11.25
2023-02-05T08:17:56.832Z,11.25
2023-02-05T08:18:56.823Z,11.25
2023-02-05T08:19:56.835Z,11.25
2023-02-05T08:20:56.810Z,11.25
2023-02-05T08:21:56.844Z,11.25
2023-02-05T08:22:56.777Z,11.25
2023-02-05T08:23:56.782Z,11.25
2023-02-05T08:24:56.759Z,11.25
2023-02-05T08:25:56.744Z,11.25
2023-02-05T08:26:56.756Z,11.25
2023-02-05T08:27:56.787Z,11.25
2023-02-05T08:28:56.727Z,11.25
2023-02-05T08:29:56.698Z,11.25
2023-02-05T08:30:56.887Z,11.25
2023-02-05T08:31:56.752Z,11.25
2023-02-05T08:32:56.675Z,11.25
2023-02-05T08:33:56.698Z,11.25
2023-02-05T08:34:56.649Z,11.25
2023-02-05T08:35:56.631Z,11.25
2023-02-05T08:36:56.646Z,11.25
2023-02-05T08:37:56.617Z,11.25
2023-02-05T08:38:56.625Z,11.25
2023-02-05T08:39:56.617Z,11.25
2023-02-05T08:40:56.586Z,11.25
2023-02-05T08:41:57.163Z,11.25
2023-02-05T08:42:56.559Z,11.25
2023-02-05T08:43:56.562Z,11.25
2023-02-05T08:44:56.552Z,11.25
2023-02-05T08:45:56.583Z,11.25
2023-02-05T08:46:56.510Z,11.25
2023-02-05T08:47:56.531Z,11.25
2023-02-05T08:48:56.489Z,11.25
2023-02-05T08:49:56.495Z,11.25
2023-02-05T08:50:56.466Z,11.25
2023-02-05T08:51:56.461Z,11.25
2023-02-05T08:52:56.443Z,11.25
2023-02-05T08:53:56.443Z,11.25
2023-02-05T08:54:56.425Z,11.25
2023-02-05T08:55:56.456Z,11.25
2023-02-05T08:56:56.397Z,16.88
2023-02-05T08:57:56.396Z,16.88
2023-02-05T08:58:56.375Z,16.88
2023-02-05T08:59:56.380Z,16.88
2023-02-05T09:00:56.371Z,16.88
2023-02-05T09:01:56.370Z,11.25
2023-02-05T09:02:56.331Z,11.25
2023-02-05T09:03:56.351Z,11.25
2023-02-05T09:05:07.657Z,11.25
2023-02-05T09:05:57.314Z,11.25
2023-02-05T09:06:56.302Z,11.25
2023-02-05T09:07:56.274Z,11.25
2023-02-05T09:08:56.264Z,11.25
2023-02-05T09:09:56.269Z,11.25
2023-02-05T09:10:56.253Z,11.25
2023-02-05T09:11:56.257Z,11.25
2023-02-05T09:12:56.242Z,11.25
2023-02-05T09:13:56.210Z,11.25
2023-02-05T09:14:56.205Z,11.25
2023-02-05T09:15:56.198Z,11.25
2023-02-05T09:16:56.233Z,11.25
2023-02-05T09:17:56.194Z,11.25
2023-02-05T09:18:56.168Z,11.25
2023-02-05T09:19:56.161Z,11.25
2023-02-05T09:20:56.143Z,11.25
2023-02-05T09:21:56.138Z,11.25
2023-02-05T09:22:56.111Z,11.25
2023-02-05T09:23:56.111Z,11.25
2023-02-05T09:24:56.104Z,16.88
2023-02-05T09:25:56.075Z,16.88
2023-02-05T09:26:56.064Z,16.88
2023-02-05T09:27:56.128Z,16.88
2023-02-05T09:28:56.051Z,16.88
2023-02-05T09:29:56.051Z,16.88
2023-02-05T09:30:56.106Z,16.88
2023-02-05T09:31:56.010Z,16.88
2023-02-05T09:32:56.006Z,16.88
2023-02-05T09:33:56.006Z,16.88
2023-02-05T09:34:55.999Z,16.88
2023-02-05T09:35:56.006Z,16.88
2023-02-05T09:36:55.963Z,11.25
2023-02-05T09:37:55.944Z,11.25
2023-02-05T09:39:12.001Z,11.25
2023-02-05T09:40:22.362Z,11.25
2023-02-05T09:40:56.948Z,11.25
2023-02-05T09:41:55.931Z,11.25
2023-02-05T09:42:55.934Z,11.25
2023-02-05T09:43:55.877Z,11.25
2023-02-05T09:44:55.900Z,11.25
2023-02-05T09:45:55.865Z,11.25
2023-02-05T09:46:55.876Z,11.25
2023-02-05T09:47:55.840Z,11.25
2023-02-05T09:48:55.835Z,11.25
2023-02-05T09:49:55.819Z,11.25
2023-02-05T09:50:57.760Z,11.25
2023-02-05T09:51:55.843Z,11.25
2023-02-05T09:52:55.807Z,11.25
2023-02-05T09:53:55.772Z,11.25
2023-02-05T09:54:55.757Z,11.25
2023-02-05T09:55:55.744Z,11.25
2023-02-05T09:56:55.762Z,16.88
2023-02-05T09:57:56.408Z,16.88
2023-02-05T09:58:55.725Z,16.88
2023-02-05T09:59:55.732Z,16.88
2023-02-05T10:00:55.712Z,16.88
2023-02-05T10:01:55.706Z,16.88
2023-02-05T10:02:55.664Z,16.88
2023-02-05T10:03:55.712Z,16.88
2023-02-05T10:04:55.646Z,16.88
2023-02-05T10:05:55.627Z,16.88
2023-02-05T10:06:55.626Z,16.88
2023-02-05T10:07:55.633Z,16.88
2023-02-05T10:08:55.623Z,16.88
2023-02-05T10:09:55.621Z,16.88
2023-02-05T10:10:55.572Z,16.88
2023-02-05T10:11:55.576Z,16.88
2023-02-05T10:12:55.552Z,16.88
2023-02-05T10:13:55.553Z,16.88
2023-02-05T10:14:55.559Z,16.88
2023-02-05T10:15:55.573Z,16.88
2023-02-05T10:16:55.508Z,16.88
2023-02-05T10:17:55.496Z,16.88
2023-02-05T10:18:55.485Z,16.88
2023-02-05T10:19:55.474Z,22.50
2023-02-05T10:20:55.921Z,22.50
2023-02-05T10:21:55.496Z,22.50
2023-02-05T10:22:55.439Z,22.50
2023-02-05T10:23:55.452Z,28.12
2023-02-05T10:24:55.472Z,28.12
2023-02-05T10:25:55.404Z,33.75
2023-02-05T10:26:55.409Z,39.38
2023-02-05T10:27:55.428Z,39.38
2023-02-05T10:28:55.377Z,39.38
2023-02-05T10:29:55.376Z,45.00
2023-02-05T10:30:55.501Z,45.00
2023-02-05T10:31:55.438Z,45.00
2023-02-05T10:32:55.339Z,39.38
2023-02-05T10:33:55.352Z,39.38
2023-02-05T10:34:55.313Z,39.38
2023-02-05T10:35:55.296Z,39.38
2023-02-05T10:36:55.312Z,39.38
2023-02-05T10:37:56.966Z,33.75
2023-02-05T10:38:55.281Z,33.75
2023-02-05T10:39:55.272Z,33.75
2023-02-05T10:40:55.257Z,33.75
2023-02-05T10:41:55.238Z,33.75
2023-02-05T10:42:55.220Z,28.12
2023-02-05T10:43:55.235Z,28.12
2023-02-05T10:44:55.218Z,33.75
2023-02-05T10:45:55.242Z,33.75
2023-02-05T10:46:55.192Z,33.75
2023-02-05T10:47:55.168Z,33.75
2023-02-05T10:48:55.152Z,33.75
2023-02-05T10:49:56.164Z,33.75
2023-02-05T10:50:55.155Z,33.75
2023-02-05T10:51:55.171Z,33.75
2023-02-05T10:52:55.108Z,33.75
2023-02-05T10:53:55.132Z,33.75
2023-02-05T10:54:55.099Z,28.12
2023-02-05T10:55:55.127Z,33.75
2023-02-05T10:56:55.074Z,33.75
2023-02-05T10:57:55.065Z,33.75
2023-02-05T10:58:55.044Z,33.75
2023-02-05T10:59:55.057Z,33.75
2023-02-05T11:00:55.028Z,33.75
2023-02-05T11:01:55.039Z,33.75
2023-02-05T11:02:55.104Z,39.38
2023-02-05T11:03:55.017Z,33.75
2023-02-05T11:04:54.978Z,39.38
2023-02-05T11:05:54.961Z,39.38
2023-02-05T11:06:54.968Z,39.38
2023-02-05T11:07:54.938Z,39.38
2023-02-05T11:08:54.974Z,39.38
2023-02-05T11:09:54.946Z,39.38
2023-02-05T11:10:54.929Z,39.38
2023-02-05T11:11:54.921Z,39.38
2023-02-05T11:12:54.904Z,39.38
2023-02-05T11:13:54.873Z,39.38
2023-02-05T11:14:54.861Z,39.38
2023-02-05T11:15:54.914Z,39.38
2023-02-05T11:16:54.865Z,39.38
2023-02-05T11:17:54.845Z,39.38
2023-02-05T11:18:54.833Z,39.38
2023-02-05T11:19:54.804Z,39.38
2023-02-05T11:20:54.801Z,39.38
2023-02-05T11:21:54.819Z,39.38
2023-02-05T11:22:54.771Z,39.38
2023-02-05T11:23:54.776Z,39.38
2023-02-05T11:24:54.773Z,45.00
2023-02-05T11:25:54.741Z,39.38
2023-02-05T11:26:54.743Z,39.38
2023-02-05T11:27:54.848Z,39.38
2023-02-05T11:28:54.741Z,39.38
2023-02-05T11:29:54.702Z,39.38
2023-02-05T11:30:55.254Z,39.38
2023-02-05T11:31:54.828Z,39.38
2023-02-05T11:32:54.660Z,33.75
2023-02-05T11:33:54.677Z,33.75
2023-02-05T11:34:54.642Z,33.75
2023-02-05T11:35:54.640Z,33.75
2023-02-05T11:36:54.657Z,28.12
2023-02-05T11:37:54.601Z,33.75
2023-02-05T11:38:54.607Z,28.12
2023-02-05T11:39:54.613Z,33.75
2023-02-05T11:40:54.582Z,33.75
2023-02-05T11:41:54.577Z,33.75
2023-02-05T11:42:54.581Z,33.75
2023-02-05T11:43:54.569Z,33.75
2023-02-05T11:44:54.546Z,33.75
2023-02-05T11:45:54.521Z,33.75
2023-02-05T11:46:54.571Z,33.75
2023-02-05T11:47:54.490Z,33.75
2023-02-05T11:48:54.521Z,33.75
2023-02-05T11:49:54.478Z,33.75
2023-02-05T11:50:54.489Z,28.12
2023-02-05T11:51:54.468Z,28.12
2023-02-05T11:52:54.454Z,28.12
2023-02-05T11:53:54.462Z,28.12
2023-02-05T11:54:54.432Z,28.12
2023-02-05T11:55:54.420Z,28.12
2023-02-05T11:56:54.394Z,22.50
2023-02-05T11:57:54.415Z,22.50
2023-02-05T11:58:54.386Z,28.12
2023-02-05T11:59:54.399Z,28.12
2023-02-05T12:00:54.362Z,28.12
2023-02-05T12:01:54.363Z,28.12
2023-02-05T12:02:54.423Z,22.50
2023-02-05T12:03:54.334Z,22.50
2023-02-05T12:04:54.327Z,22.50
2023-02-05T12:05:54.340Z,22.50
2023-02-05T12:06:54.299Z,22.50
2023-02-05T12:07:54.295Z,22.50
2023-02-05T12:08:54.263Z,16.88
2023-02-05T12:09:54.270Z,16.88
2023-02-05T12:10:54.236Z,16.88
2023-02-05T12:11:54.249Z,16.88
2023-02-05T12:12:54.347Z,16.88
2023-02-05T12:13:54.238Z,16.88
2023-02-05T12:14:54.208Z,16.88
2023-02-05T12:15:54.388Z,16.88
2023-02-05T12:16:54.174Z,16.88
2023-02-05T12:17:54.162Z,16.88
2023-02-05T12:18:54.167Z,16.88
2023-02-05T12:19:54.176Z,16.88
2023-02-05T12:20:54.137Z,16.88
2023-02-05T12:21:54.114Z,16.88
2023-02-05T12:22:54.101Z,16.88
2023-02-05T12:23:54.105Z,16.88
2023-02-05T12:24:54.106Z,16.88
2023-02-05T12:25:54.096Z,22.50
2023-02-05T12:26:54.082Z,22.50
2023-02-05T12:27:54.072Z,16.88
2023-02-05T12:28:54.080Z,16.88
2023-02-05T12:29:54.037Z,16.88
2023-02-05T12:30:54.065Z,16.88
2023-02-05T12:31:54.093Z,16.88
2023-02-05T12:32:54.008Z,16.88
2023-02-05T12:33:53.977Z,16.88
2023-02-05T12:34:53.977Z,16.88
2023-02-05T12:35:53.975Z,16.88
2023-02-05T12:36:53.984Z,11.25
2023-02-05T12:37:53.951Z,11.25
2023-02-05T12:38:53.917Z,11.25
2023-02-05T12:39:53.908Z,11.25
2023-02-05T12:40:53.913Z,11.25
2023-02-05T12:41:53.897Z,16.88
2023-02-05T12:42:53.876Z,16.88
2023-02-05T12:43:53.888Z,16.88
2023-02-05T12:44:53.875Z,16.88
2023-02-05T12:45:53.868Z,16.88
2023-02-05T12:46:53.849Z,16.88
2023-02-05T12:47:53.871Z,16.88
2023-02-05T12:48:53.812Z,16.88
2023-02-05T12:49:53.820Z,16.88
2023-02-05T12:50:53.791Z,11.25
2023-02-05T12:51:53.782Z,16.88
2023-02-05T12:52:53.762Z,16.88
2023-02-05T12:53:53.796Z,16.88
2023-02-05T12:54:53.751Z,16.88
2023-02-05T12:55:53.766Z,16.88
2023-02-05T12:56:53.713Z,16.88
2023-02-05T12:57:53.723Z,16.88
2023-02-05T12:58:53.723Z,16.88
2023-02-05T12:59:53.688Z,16.88
2023-02-05T13:00:53.766Z,16.88
2023-02-05T13:01:53.694Z,16.88
2023-02-05T13:02:53.646Z,16.88
2023-02-05T13:03:53.714Z,16.88
2023-02-05T13:04:53.638Z,16.88
2023-02-05T13:05:53.645Z,16.88
2023-02-05T13:06:53.617Z,16.88
2023-02-05T13:07:53.626Z,16.88